Starkweather, North Dakota
Current Conditions -  °F | °C
As of 9:55 AM on Saturday 20 Dec 2014 (Local Time) from K9D7 Reporting Station
Moderate Fog Moderate Fog  
Wind Chill: 15°   Ceiling: 200
Heat Index: 23°   Visibility: 0.25mi
Dew Point: 21°   Wind: 7mph
Humidity: 93%   Direction: 200°SSW
Pressure: 29.94"   Gusts: NA
Location:  48.45°N, 98.88°W
Report Text: K9D7 201555Z AUTO 20006KT 1/4SM FZFG OVC002 M05/M06 A2994 RMK AO2
Loading
Personal Weather Stations






























Interactive Weather Map New forecast layout! Learn more

10-Day Weather Forecast

Advertisements
Track Severe Weather on mobile